Azamara Journey — 9HOB8 — position and weather

sailwx.info

Track history (hours):
 
Tides and Currents Weather Stations Pressure Air Temp Water Temp Dewpoint Dewpoint Depression Visibility Wind Speed Wind Dir Waves Ship Positions

Azamara Journey

Last reported at 2017-May-27 00:57 UTC. Time now 2017-May-27 02:19 UTC.
Position N 33°56' E 032°30'.

Type: Ship. MMSI: 256204000.

Date/timePositionNaut miles runAvg speedWind from/ knotsBaromVisibWave heightAir tempDewpointWater temp
2017-May-27 00:57N 33°56' E 032°30'614.0
2017-May-27 00:30N 33°50' E 032°30'713.7
2017-May-26 23:58N 33°43' E 032°32'613.9
2017-May-26 23:30N 33°36' E 032°32'714.2
2017-May-26 23:00N 33°29' E 032°34'816.1
2017-May-26 22:30N 33°21' E 032°35'816.0
2017-May-26 22:00N 33°13' E 032°36'816.0
2017-May-26 21:30N 33°05' E 032°37'915.9
2017-May-26 20:55N 32°56' E 032°38'5015.3
2017-May-26 17:38N 32°06' E 032°45'214.8
2017-May-26 17:30N 32°04' E 032°45'714.9
2017-May-26 17:00N 31°57' E 032°47'913.8
2017-May-26 16:21N 31°48' E 032°47'412.7
2017-May-26 16:00N 31°45' E 032°43'815.0
2017-May-26 15:30N 31°41' E 032°35'1314.5
2017-May-26 14:37N 31°34' E 032°23'914.4
2017-May-26 14:00N 31°25' E 032°24'1214.1
2017-May-26 13:09N 31°14' E 032°21'1 7.6
2017-May-26 12:58N 31°12' E 032°20'4 6.9
2017-May-26 12:27N 31°09' E 032°19'4 9.2
2017-May-26 12:00N 31°05' E 032°19'5 9.3
2017-May-26 11:30N 31°00' E 032°19'  
Track history (hours):
 
Tides and Currents Weather Stations Pressure Air Temp Water Temp Dewpoint Dewpoint Depression Visibility Wind Speed Wind Dir Waves Ship Positions

Azamara Journey

Last reported at 2017-May-27 00:57 UTC. Time now 2017-May-27 02:19 UTC.
Position N 33°56' E 032°30'.

Type: Ship. MMSI: 256204000.

Date/timePositionNaut miles runAvg speedWind from/ knotsBaromVisibWave heightAir tempDewpointWater temp
2017-May-27 00:57N 33°56' E 032°30'614.0
2017-May-27 00:30N 33°50' E 032°30'713.7
2017-May-26 23:58N 33°43' E 032°32'613.9
2017-May-26 23:30N 33°36' E 032°32'714.2
2017-May-26 23:00N 33°29' E 032°34'816.1
2017-May-26 22:30N 33°21' E 032°35'816.0
2017-May-26 22:00N 33°13' E 032°36'816.0
2017-May-26 21:30N 33°05' E 032°37'915.9
2017-May-26 20:55N 32°56' E 032°38'5015.3
2017-May-26 17:38N 32°06' E 032°45'214.8
2017-May-26 17:30N 32°04' E 032°45'714.9
2017-May-26 17:00N 31°57' E 032°47'913.8
2017-May-26 16:21N 31°48' E 032°47'412.7
2017-May-26 16:00N 31°45' E 032°43'815.0
2017-May-26 15:30N 31°41' E 032°35'1314.5
2017-May-26 14:37N 31°34' E 032°23'914.4
2017-May-26 14:00N 31°25' E 032°24'1214.1
2017-May-26 13:09N 31°14' E 032°21'1 7.6
2017-May-26 12:58N 31°12' E 032°20'4 6.9
2017-May-26 12:27N 31°09' E 032°19'4 9.2
2017-May-26 12:00N 31°05' E 032°19'5 9.3
2017-May-26 11:30N 31°00' E 032°19'  

Dump ship's entire track history